createdAt,value
2022-12-22T00:01:32.036Z,7.97
2022-12-22T00:04:17.975Z,2.90
2022-12-22T00:07:03.159Z,1.83
2022-12-22T00:09:47.883Z,2.17
2022-12-22T00:12:36.564Z,1.93
2022-12-22T00:15:22.365Z,2.10
2022-12-22T00:18:07.415Z,2.20
2022-12-22T00:20:52.264Z,1.90
2022-12-22T00:23:37.001Z,3.37
2022-12-22T00:26:21.707Z,2.47
2022-12-22T00:29:07.755Z,2.03
2022-12-22T00:31:52.742Z,1.87
2022-12-22T00:34:38.990Z,2.07
2022-12-22T00:37:24.142Z,2.20
2022-12-22T00:40:08.907Z,2.20
2022-12-22T00:42:53.825Z,1.90
2022-12-22T00:45:40.056Z,1.80
2022-12-22T00:48:26.491Z,2.40
2022-12-22T00:51:12.301Z,2.10
2022-12-22T00:53:57.072Z,2.13
2022-12-22T00:56:41.926Z,3.57
2022-12-22T00:59:28.601Z,2.70
2022-12-22T01:02:14.936Z,2.63
2022-12-22T01:05:00.283Z,2.03
2022-12-22T01:07:46.146Z,2.20
2022-12-22T01:10:31.963Z,1.97
2022-12-22T01:13:16.840Z,1.90
2022-12-22T01:16:01.676Z,1.80
2022-12-22T01:18:47.985Z,1.60
2022-12-22T01:21:33.263Z,2.00
2022-12-22T01:24:18.162Z,1.90
2022-12-22T01:27:03.297Z,1.97
2022-12-22T01:29:48.065Z,2.80
2022-12-22T01:32:33.624Z,1.77
2022-12-22T01:35:19.982Z,2.60
2022-12-22T01:38:05.040Z,2.40
2022-12-22T01:40:50.078Z,6.20
2022-12-22T01:43:38.390Z,1.97
2022-12-22T01:46:40.064Z,2.00
2022-12-22T01:49:27.310Z,2.13
2022-12-22T01:52:13.437Z,2.33
2022-12-22T01:54:58.907Z,2.37
2022-12-22T01:57:43.755Z,4.43
2022-12-22T02:00:29.280Z,4.87
2022-12-22T02:03:14.235Z,3.00
2022-12-22T02:06:04.658Z,2.20
2022-12-22T02:08:52.746Z,2.40
2022-12-22T02:11:41.712Z,2.50
2022-12-22T02:14:34.295Z,2.37
2022-12-22T02:17:23.377Z,2.03
2022-12-22T02:20:41.205Z,2.17
2022-12-22T02:23:32.509Z,2.10
2022-12-22T02:26:22.154Z,2.33
2022-12-22T02:29:09.937Z,2.17
2022-12-22T02:31:56.047Z,2.70
2022-12-22T02:34:40.939Z,4.87
2022-12-22T02:37:29.515Z,1.83
2022-12-22T02:40:19.349Z,1.70
2022-12-22T02:43:08.949Z,1.50
2022-12-22T02:45:59.631Z,1.63
2022-12-22T02:48:46.408Z,3.27
2022-12-22T02:51:35.876Z,2.70
2022-12-22T02:54:21.190Z,1.50
2022-12-22T02:57:06.502Z,2.87
2022-12-22T02:59:51.387Z,2.10
2022-12-22T03:02:37.976Z,1.70
2022-12-22T03:05:23.735Z,5.00
2022-12-22T03:08:08.942Z,2.13
2022-12-22T03:10:53.956Z,1.30
2022-12-22T03:13:38.975Z,1.23
2022-12-22T03:16:24.120Z,1.30
2022-12-22T03:19:10.541Z,1.30
2022-12-22T03:21:55.611Z,1.40
2022-12-22T03:24:40.415Z,1.10
2022-12-22T03:27:07.992Z,1.20
2022-12-22T03:29:35.388Z,1.20
2022-12-22T03:32:03.144Z,1.60
2022-12-22T03:34:32.070Z,2.50
2022-12-22T03:36:59.525Z,1.30
2022-12-22T03:39:27.175Z,1.57
2022-12-22T03:42:17.890Z,1.30
2022-12-22T03:45:02.742Z,3.33
2022-12-22T03:47:31.725Z,3.13
2022-12-22T03:50:00.602Z,2.07
2022-12-22T03:52:28.144Z,1.63
2022-12-22T03:54:55.584Z,2.57
2022-12-22T03:57:23.264Z,1.30
2022-12-22T03:59:50.793Z,2.10
2022-12-22T04:02:18.536Z,1.90
2022-12-22T04:04:46.015Z,1.43
2022-12-22T04:07:14.876Z,2.90
2022-12-22T04:10:02.434Z,1.70
2022-12-22T04:12:47.373Z,1.87
2022-12-22T04:15:14.875Z,1.53
2022-12-22T04:17:42.308Z,1.40
2022-12-22T04:20:10.315Z,1.33
2022-12-22T04:22:39.439Z,2.20
2022-12-22T04:25:07.583Z,1.00
2022-12-22T04:27:35.047Z,1.00
2022-12-22T04:30:02.520Z,1.20
2022-12-22T04:32:30.039Z,1.13
2022-12-22T04:34:57.495Z,2.93
2022-12-22T04:37:25.143Z,1.07
2022-12-22T04:39:53.999Z,1.07
2022-12-22T04:42:21.504Z,1.37
2022-12-22T04:44:48.981Z,1.57
2022-12-22T04:47:16.427Z,1.30
2022-12-22T04:49:44.547Z,1.40
2022-12-22T04:52:12.043Z,2.20
2022-12-22T04:54:39.529Z,2.60
2022-12-22T04:57:08.323Z,1.50
2022-12-22T04:59:35.883Z,1.40
2022-12-22T05:02:03.381Z,1.77
2022-12-22T05:04:31.126Z,1.30
2022-12-22T05:06:58.551Z,1.30
2022-12-22T05:09:26.152Z,1.33
2022-12-22T05:11:53.620Z,1.17
2022-12-22T05:14:22.436Z,1.40
2022-12-22T05:16:49.911Z,2.00
2022-12-22T05:19:17.336Z,1.30
2022-12-22T05:21:45.616Z,7.00
2022-12-22T05:24:13.653Z,1.30
2022-12-22T05:26:41.150Z,2.30
2022-12-22T05:29:08.565Z,1.40
2022-12-22T05:31:40.718Z,1.10
2022-12-22T05:34:12.611Z,1.60
2022-12-22T05:36:40.061Z,1.63
2022-12-22T05:39:07.564Z,2.70
2022-12-22T05:41:35.269Z,2.10
2022-12-22T05:44:02.663Z,4.30
2022-12-22T05:46:30.193Z,6.93
2022-12-22T05:48:59.009Z,3.30
2022-12-22T05:51:26.435Z,2.73
2022-12-22T05:53:53.892Z,2.50
2022-12-22T05:56:21.407Z,2.73
2022-12-22T05:58:48.915Z,2.57
2022-12-22T06:01:16.321Z,1.83
2022-12-22T06:03:43.851Z,1.80
2022-12-22T06:06:12.677Z,4.93
2022-12-22T06:08:40.068Z,5.90
2022-12-22T06:11:07.651Z,5.90
2022-12-22T06:13:35.127Z,1.53
2022-12-22T06:16:02.656Z,8.53
2022-12-22T06:18:30.296Z,1.60
2022-12-22T06:20:57.875Z,2.13
2022-12-22T06:23:26.668Z,3.07
2022-12-22T06:25:55.050Z,1.57
2022-12-22T06:28:23.140Z,1.40
2022-12-22T06:30:50.708Z,1.60
2022-12-22T06:33:18.481Z,2.07
2022-12-22T06:35:46.140Z,3.93
2022-12-22T06:38:13.896Z,4.73
2022-12-22T06:40:42.747Z,2.10
2022-12-22T06:43:10.113Z,5.43
2022-12-22T06:45:39.221Z,3.27
2022-12-22T06:48:07.278Z,3.47
2022-12-22T06:50:35.260Z,6.03
2022-12-22T06:53:03.040Z,2.90
2022-12-22T06:55:30.599Z,5.40
2022-12-22T06:57:59.414Z,22.13
2022-12-22T07:00:27.080Z,7.00
2022-12-22T07:02:54.788Z,3.13
2022-12-22T07:05:23.825Z,5.17
2022-12-22T07:07:51.538Z,6.90
2022-12-22T07:10:19.041Z,7.10
2022-12-22T07:12:46.625Z,10.57
2022-12-22T07:15:15.580Z,11.47
2022-12-22T07:17:42.992Z,13.23
2022-12-22T07:20:10.996Z,19.00
2022-12-22T07:22:38.753Z,16.07
2022-12-22T07:25:06.539Z,20.57
2022-12-22T07:27:34.127Z,17.40
2022-12-22T07:30:01.628Z,19.50
2022-12-22T07:32:30.495Z,25.50
2022-12-22T07:35:03.206Z,23.77
2022-12-22T07:37:33.006Z,26.30
2022-12-22T07:40:00.509Z,31.60
2022-12-22T07:42:50.660Z,21.67
2022-12-22T07:45:19.525Z,20.80
2022-12-22T07:47:49.260Z,21.10
2022-12-22T07:50:27.619Z,22.00
2022-12-22T07:52:55.800Z,20.57
2022-12-22T07:55:23.618Z,24.63
2022-12-22T07:57:51.206Z,24.53
2022-12-22T08:00:19.505Z,30.23
2022-12-22T08:02:51.145Z,21.53
2022-12-22T08:05:19.228Z,24.03
2022-12-22T08:07:46.789Z,26.40
2022-12-22T08:10:14.319Z,24.87
2022-12-22T08:12:41.803Z,24.63
2022-12-22T08:15:10.125Z,25.57
2022-12-22T08:17:37.787Z,26.00
2022-12-22T08:20:07.575Z,21.53
2022-12-22T08:22:34.987Z,23.70
2022-12-22T08:25:02.484Z,24.53
2022-12-22T08:27:33.171Z,22.43
2022-12-22T08:30:02.197Z,23.87
2022-12-22T08:32:29.764Z,23.80
2022-12-22T08:34:57.318Z,19.90
2022-12-22T08:37:27.920Z,22.63
2022-12-22T08:39:57.220Z,21.60
2022-12-22T08:42:26.285Z,22.10
2022-12-22T08:44:54.189Z,22.80
2022-12-22T08:47:21.782Z,24.30
2022-12-22T08:49:49.596Z,20.10
2022-12-22T08:52:18.646Z,22.90
2022-12-22T08:54:48.268Z,22.03
2022-12-22T08:57:15.838Z,27.17
2022-12-22T08:59:43.259Z,23.47
2022-12-22T09:02:10.850Z,23.53
2022-12-22T09:04:38.371Z,22.87
2022-12-22T09:07:05.934Z,28.17
2022-12-22T09:09:34.198Z,18.93
2022-12-22T09:12:04.074Z,28.23
2022-12-22T09:14:32.393Z,29.07
2022-12-22T09:17:00.053Z,33.43
2022-12-22T09:19:27.512Z,30.67
2022-12-22T09:21:55.988Z,33.20
2022-12-22T09:24:23.504Z,36.57
2022-12-22T09:26:50.952Z,42.60
2022-12-22T09:29:19.917Z,37.67
2022-12-22T09:31:47.413Z,40.20
2022-12-22T09:34:18.109Z,48.77
2022-12-22T09:36:46.631Z,42.87
2022-12-22T09:39:14.584Z,48.40
2022-12-22T09:41:44.193Z,52.67
2022-12-22T09:44:14.953Z,51.13
2022-12-22T09:46:44.079Z,55.20
2022-12-22T09:49:13.459Z,56.60
2022-12-22T09:51:42.645Z,50.17
2022-12-22T09:54:11.787Z,52.90
2022-12-22T09:56:39.485Z,55.60
2022-12-22T09:59:10.407Z,53.60
2022-12-22T10:01:41.082Z,49.30
2022-12-22T10:04:15.190Z,56.47
2022-12-22T10:06:44.734Z,55.13
2022-12-22T10:09:46.147Z,56.00
2022-12-22T10:12:05.963Z,49.30
2022-12-22T10:14:35.422Z,53.23
2022-12-22T10:17:21.073Z,53.67
2022-12-22T10:19:50.617Z,53.90
2022-12-22T10:22:21.387Z,57.50
2022-12-22T10:24:49.108Z,60.60
2022-12-22T10:27:16.777Z,53.40
2022-12-22T10:29:45.965Z,56.60
2022-12-22T10:32:14.827Z,49.70
2022-12-22T10:34:58.954Z,49.63
2022-12-22T10:37:33.012Z,55.20
2022-12-22T10:40:00.509Z,55.87
2022-12-22T10:42:27.945Z,52.23
2022-12-22T10:44:55.473Z,52.80
2022-12-22T10:47:24.744Z,61.43
2022-12-22T10:52:29.247Z,57.47
2022-12-22T10:55:15.286Z,59.93
2022-12-22T10:57:42.741Z,60.23
2022-12-22T11:00:24.562Z,45.87
2022-12-22T11:02:52.915Z,40.10
2022-12-22T11:05:20.792Z,43.20
2022-12-22T11:07:48.817Z,39.17
2022-12-22T11:10:23.659Z,38.93
2022-12-22T11:13:02.437Z,39.70
2022-12-22T11:15:32.316Z,37.90
2022-12-22T11:18:02.511Z,37.57
2022-12-22T11:20:34.838Z,38.70
2022-12-22T11:23:04.040Z,34.80
2022-12-22T11:25:37.690Z,33.00
2022-12-22T11:28:18.209Z,35.57
2022-12-22T11:30:51.966Z,35.40
2022-12-22T11:33:29.249Z,37.10
2022-12-22T11:35:59.545Z,34.40
2022-12-22T11:38:31.995Z,31.23
2022-12-22T11:41:05.338Z,30.77
2022-12-22T11:43:39.672Z,29.70
2022-12-22T11:46:15.367Z,27.67
2022-12-22T11:49:00.927Z,24.87
2022-12-22T11:51:36.284Z,24.63
2022-12-22T11:54:13.053Z,24.37
2022-12-22T11:56:42.349Z,20.43
2022-12-22T11:59:19.130Z,18.57
2022-12-22T12:01:57.298Z,17.40
2022-12-22T12:04:33.113Z,17.57
2022-12-22T12:07:04.972Z,17.37
2022-12-22T12:09:36.394Z,17.60
2022-12-22T12:12:11.205Z,16.33
2022-12-22T12:14:40.291Z,19.83
2022-12-22T12:17:15.927Z,16.17
2022-12-22T12:19:59.352Z,17.90
2022-12-22T12:22:33.474Z,15.63
2022-12-22T12:25:02.655Z,14.40
2022-12-22T12:27:39.185Z,16.63
2022-12-22T12:33:01.914Z,15.17
2022-12-22T12:35:36.660Z,15.63
2022-12-22T12:38:07.076Z,14.97
2022-12-22T12:40:40.786Z,20.50
2022-12-22T12:43:16.219Z,14.27
2022-12-22T12:45:45.172Z,11.13
2022-12-22T12:48:36.760Z,10.50
2022-12-22T12:51:24.266Z,9.67
2022-12-22T12:54:06.627Z,10.83
2022-12-22T12:56:48.924Z,10.90
2022-12-22T12:59:44.860Z,10.27
2022-12-22T13:02:27.569Z,11.67
2022-12-22T13:05:12.362Z,12.63
2022-12-22T13:08:09.803Z,10.50
2022-12-22T13:10:38.572Z,10.17
2022-12-22T13:13:06.153Z,7.50
2022-12-22T13:15:36.436Z,10.70
2022-12-22T13:18:05.798Z,12.10
2022-12-22T13:20:34.757Z,7.53
2022-12-22T13:23:03.663Z,9.87
2022-12-22T13:25:40.467Z,9.27
2022-12-22T13:28:11.550Z,11.87
2022-12-22T13:30:40.560Z,7.77
2022-12-22T13:33:12.217Z,9.90
2022-12-22T13:35:47.581Z,8.53
2022-12-22T13:38:30.228Z,9.50
2022-12-22T13:40:57.985Z,9.90
2022-12-22T13:43:27.538Z,7.70
2022-12-22T13:45:57.162Z,7.33
2022-12-22T13:48:26.592Z,6.57
2022-12-22T13:50:54.539Z,7.50
2022-12-22T13:54:07.166Z,7.30
2022-12-22T13:56:14.952Z,7.10
2022-12-22T13:58:44.990Z,6.50
2022-12-22T14:01:18.024Z,7.20
2022-12-22T14:04:02.272Z,7.27
2022-12-22T14:06:31.260Z,5.30
2022-12-22T14:09:11.773Z,8.23
2022-12-22T14:11:42.792Z,9.20
2022-12-22T14:14:17.283Z,4.73
2022-12-22T14:16:47.694Z,6.53
2022-12-22T14:19:15.648Z,7.97
2022-12-22T14:21:44.198Z,4.90
2022-12-22T14:24:13.374Z,7.20
2022-12-22T14:26:40.851Z,6.97
2022-12-22T14:29:12.273Z,10.53
2022-12-22T14:31:52.801Z,10.67
2022-12-22T14:34:25.384Z,8.37
2022-12-22T14:36:54.459Z,12.33
2022-12-22T14:39:22.903Z,9.67
2022-12-22T14:41:51.945Z,8.87
2022-12-22T14:44:21.105Z,9.37
2022-12-22T14:47:01.367Z,6.70
2022-12-22T14:49:30.178Z,12.73
2022-12-22T14:52:01.373Z,8.80
2022-12-22T14:54:29.111Z,6.80
2022-12-22T14:57:00.792Z,9.90
2022-12-22T14:59:29.072Z,5.70
2022-12-22T15:02:00.731Z,5.90
2022-12-22T15:04:30.361Z,6.23
2022-12-22T15:07:15.063Z,8.60
2022-12-22T15:10:15.014Z,7.13
2022-12-22T15:12:43.427Z,8.50
2022-12-22T15:15:15.200Z,6.57
2022-12-22T15:17:44.592Z,8.20
2022-12-22T15:20:16.609Z,6.70
2022-12-22T15:22:44.130Z,10.07
2022-12-22T15:25:15.251Z,8.03
2022-12-22T15:27:42.681Z,9.50
2022-12-22T15:30:11.252Z,12.27
2022-12-22T15:32:38.770Z,12.30
2022-12-22T15:35:12.480Z,11.77
2022-12-22T15:37:41.280Z,13.70
2022-12-22T15:40:13.657Z,15.97
2022-12-22T15:42:41.112Z,13.83
2022-12-22T15:45:08.920Z,20.93
2022-12-22T15:47:36.326Z,16.67
2022-12-22T15:50:03.777Z,14.23
2022-12-22T15:52:32.620Z,18.67
2022-12-22T15:55:01.548Z,16.10
2022-12-22T15:57:29.252Z,23.37
2022-12-22T15:59:56.702Z,16.85
2022-12-22T16:02:24.349Z,15.60
2022-12-22T16:04:51.811Z,17.37
2022-12-22T16:07:19.265Z,16.13
2022-12-22T16:09:48.376Z,14.10
2022-12-22T16:12:18.525Z,15.83
2022-12-22T16:14:50.553Z,18.90
2022-12-22T16:17:19.299Z,18.03
2022-12-22T16:19:46.766Z,15.90
2022-12-22T16:22:14.808Z,18.87
2022-12-22T16:24:43.887Z,14.20
2022-12-22T16:27:12.503Z,15.17
2022-12-22T16:29:41.600Z,18.53
2022-12-22T16:32:19.091Z,14.37
2022-12-22T16:34:46.555Z,10.90
2022-12-22T16:37:14.034Z,12.70
2022-12-22T16:39:41.481Z,11.30
2022-12-22T16:44:56.016Z,9.53
2022-12-22T16:47:26.280Z,10.67
2022-12-22T16:49:54.092Z,10.33
2022-12-22T16:52:23.391Z,10.17
2022-12-22T16:54:52.916Z,10.40
2022-12-22T16:57:20.571Z,11.00
2022-12-22T16:59:48.018Z,11.70
2022-12-22T17:02:21.223Z,11.60
2022-12-22T17:04:49.030Z,10.20
2022-12-22T17:07:16.501Z,8.47
2022-12-22T17:09:46.188Z,12.23
2022-12-22T17:12:17.731Z,6.30
2022-12-22T17:14:45.604Z,4.60
2022-12-22T17:17:15.694Z,4.30
2022-12-22T17:19:44.639Z,4.30
2022-12-22T17:22:20.753Z,4.10
2022-12-22T17:24:48.515Z,4.17
2022-12-22T17:27:16.672Z,4.80
2022-12-22T17:29:44.167Z,4.20
2022-12-22T17:32:13.361Z,3.60
2022-12-22T17:34:40.825Z,3.80
2022-12-22T17:37:13.827Z,8.57
2022-12-22T17:39:41.608Z,2.40
2022-12-22T17:42:17.012Z,2.40
2022-12-22T17:44:44.689Z,2.40
2022-12-22T17:47:13.789Z,3.80
2022-12-22T17:49:41.258Z,3.37
2022-12-22T17:52:15.671Z,2.60
2022-12-22T17:54:43.228Z,3.73
2022-12-22T17:57:14.336Z,4.77
2022-12-22T17:59:41.750Z,2.70
2022-12-22T18:02:12.912Z,2.70
2022-12-22T18:04:40.359Z,2.70
2022-12-22T18:07:07.798Z,2.30
2022-12-22T18:09:36.904Z,4.77
2022-12-22T18:12:04.613Z,2.77
2022-12-22T18:14:32.080Z,4.43
2022-12-22T18:16:59.567Z,5.97
2022-12-22T18:19:27.100Z,4.00
2022-12-22T18:21:54.580Z,2.50
2022-12-22T18:24:21.979Z,5.20
2022-12-22T18:26:50.743Z,5.47
2022-12-22T18:29:18.539Z,6.43
2022-12-22T18:31:46.315Z,5.10
2022-12-22T18:34:13.904Z,8.37
2022-12-22T18:36:44.381Z,11.73
2022-12-22T18:39:17.329Z,5.77
2022-12-22T18:41:45.492Z,6.30
2022-12-22T18:44:16.016Z,6.53
2022-12-22T18:46:43.699Z,4.70
2022-12-22T18:49:11.321Z,5.40
2022-12-22T18:51:38.787Z,4.20
2022-12-22T18:54:20.131Z,3.67
2022-12-22T18:56:49.168Z,4.77
2022-12-22T18:59:22.105Z,4.07
2022-12-22T19:01:49.845Z,7.20
2022-12-22T19:04:17.584Z,3.70
2022-12-22T19:06:45.071Z,8.33
2022-12-22T19:09:13.702Z,5.90
2022-12-22T19:11:41.607Z,6.20
2022-12-22T19:14:15.755Z,4.57
2022-12-22T19:16:44.660Z,4.90
2022-12-22T19:19:16.971Z,8.13
2022-12-22T19:21:44.433Z,6.23
2022-12-22T19:24:11.987Z,4.23
2022-12-22T19:26:40.352Z,4.20
2022-12-22T19:29:09.756Z,5.33
2022-12-22T19:31:38.382Z,5.90
2022-12-22T19:34:11.011Z,10.43
2022-12-22T19:36:38.635Z,8.20
2022-12-22T19:39:06.314Z,5.33
2022-12-22T19:41:42.480Z,5.57
2022-12-22T19:44:23.381Z,8.50
2022-12-22T19:46:51.265Z,7.20
2022-12-22T19:49:21.030Z,5.57
2022-12-22T19:51:48.808Z,8.53
2022-12-22T19:54:16.575Z,6.57
2022-12-22T19:56:46.200Z,6.40
2022-12-22T19:59:25.416Z,10.57
2022-12-22T20:01:54.866Z,7.37
2022-12-22T20:04:24.093Z,5.20
2022-12-22T20:06:51.684Z,9.60
2022-12-22T20:09:19.869Z,6.10
2022-12-22T20:11:47.453Z,6.83
2022-12-22T20:14:17.138Z,9.47
2022-12-22T20:16:45.186Z,6.63
2022-12-22T20:19:14.751Z,8.27
2022-12-22T20:21:43.811Z,9.00
2022-12-22T20:24:14.656Z,10.03
2022-12-22T20:26:42.335Z,9.80
2022-12-22T20:29:10.789Z,10.10
2022-12-22T20:31:38.323Z,11.67
2022-12-22T20:34:06.889Z,9.70
2022-12-22T20:36:34.477Z,11.83
2022-12-22T20:39:04.069Z,13.60
2022-12-22T20:41:31.766Z,6.97
2022-12-22T20:43:59.470Z,12.73
2022-12-22T20:46:28.410Z,10.93
2022-12-22T20:48:56.695Z,18.13
2022-12-22T20:51:25.077Z,12.33
2022-12-22T20:53:53.458Z,18.30
2022-12-22T20:56:23.922Z,12.50
2022-12-22T20:58:51.806Z,13.87
2022-12-22T21:01:19.567Z,8.73
2022-12-22T21:03:47.167Z,13.17
2022-12-22T21:06:24.914Z,10.77
2022-12-22T21:08:53.136Z,12.73
2022-12-22T21:11:22.111Z,11.73
2022-12-22T21:13:49.896Z,9.43
2022-12-22T21:16:18.549Z,14.33
2022-12-22T21:18:46.546Z,16.47
2022-12-22T21:21:14.748Z,9.83
2022-12-22T21:23:42.205Z,12.40
2022-12-22T21:26:17.190Z,13.30
2022-12-22T21:28:46.737Z,10.10
2022-12-22T21:31:14.267Z,13.03
2022-12-22T21:33:41.924Z,7.50
2022-12-22T21:36:16.318Z,8.30
2022-12-22T21:38:43.766Z,16.57
2022-12-22T21:41:11.565Z,11.17
2022-12-22T21:43:39.009Z,10.60
2022-12-22T21:46:07.817Z,13.60
2022-12-22T21:48:35.427Z,18.10
2022-12-22T21:51:02.899Z,12.17
2022-12-22T21:53:30.510Z,10.87
2022-12-22T21:55:57.900Z,8.93
2022-12-22T21:58:25.511Z,13.93
2022-12-22T22:00:52.998Z,12.13
2022-12-22T22:03:22.065Z,9.77
2022-12-22T22:05:49.556Z,8.27
2022-12-22T22:08:16.995Z,11.10
2022-12-22T22:10:44.817Z,10.37
2022-12-22T22:13:13.999Z,7.83
2022-12-22T22:15:41.673Z,11.13
2022-12-22T22:18:15.088Z,12.27
2022-12-22T22:20:43.968Z,7.47
2022-12-22T22:23:12.393Z,8.00
2022-12-22T22:25:39.918Z,9.63
2022-12-22T22:28:07.383Z,8.43
2022-12-22T22:30:34.873Z,8.83
2022-12-22T22:33:02.324Z,8.20
2022-12-22T22:35:29.773Z,9.83
2022-12-22T22:37:58.697Z,16.87
2022-12-22T22:40:26.148Z,13.93
2022-12-22T22:42:53.624Z,7.27
2022-12-22T22:45:23.795Z,10.70
2022-12-22T22:47:51.948Z,10.70
2022-12-22T22:50:20.144Z,17.47
2022-12-22T22:52:47.753Z,17.53
2022-12-22T22:55:16.773Z,8.40
2022-12-22T22:57:44.303Z,9.23
2022-12-22T23:00:13.511Z,7.03
2022-12-22T23:02:41.243Z,8.23
2022-12-22T23:05:09.546Z,14.67
2022-12-22T23:07:37.239Z,10.30
2022-12-22T23:10:05.408Z,13.93
2022-12-22T23:12:34.224Z,13.90
2022-12-22T23:15:02.858Z,12.33
2022-12-22T23:17:30.369Z,16.87
2022-12-22T23:19:57.867Z,8.17
2022-12-22T23:22:25.349Z,8.10
2022-12-22T23:24:53.063Z,7.87
2022-12-22T23:27:20.548Z,11.33
2022-12-22T23:29:49.355Z,9.20
2022-12-22T23:32:16.818Z,11.27
2022-12-22T23:34:44.269Z,8.10
2022-12-22T23:37:18.752Z,9.27
2022-12-22T23:39:46.969Z,12.10
2022-12-22T23:42:14.476Z,11.90
2022-12-22T23:44:41.856Z,10.43
2022-12-22T23:47:10.842Z,9.30
2022-12-22T23:49:38.308Z,11.83
2022-12-22T23:52:05.780Z,9.57
2022-12-22T23:54:33.207Z,10.90
2022-12-22T23:57:00.725Z,10.97
2022-12-22T23:59:28.794Z,12.53
